Touareg — J8NP — position and weather

sailwx.info

Track history (hours):
 
Tides and Currents Weather Stations Pressure Air Temp Water Temp Dewpoint Dewpoint Depression Visibility Wind Speed Wind Dir Waves Ship Positions

Touareg

Last reported at 2018-Jun-05 03:54 UTC. Time now 2018-Jun-19 12:42 UTC.
Position N 14°27' W 061°09'.
Warning: this ship's position is 14 days out of date.

; draft 4.7 m.

Type: Other ship. MMSI: 377907128.

Date/timePositionNaut miles runAvg speedWind from/ knotsBaromVisibWave heightAir tempDewpointWater temp
2018-Jun-05 03:54N 14°27' W 061°09'2 4.2
2018-Jun-05 03:30N 14°28' W 061°09'3 4.6
2018-Jun-05 02:44N 14°32' W 061°09'1 4.8
2018-Jun-05 02:30N 14°33' W 061°09'5 3.7
2018-Jun-05 01:04N 14°38' W 061°10'2 5.7
2018-Jun-05 00:45N 14°37' W 061°08'310.2
2018-Jun-05 00:29N 14°36' W 061°06'2 0.3
2018-Jun-04 16:14N 14°36' W 061°04'2 8.1
2018-Jun-04 15:56N 14°36' W 061°06'  
2018-May-28 14:14N 14°38' W 061°09'2 6.1
2018-May-28 13:58N 14°36' W 061°08'2 4.3
2018-May-28 13:24N 14°35' W 061°06'1 3.6
2018-May-28 13:00N 14°35' W 061°05'1 2.1
2018-May-28 12:27N 14°36' W 061°04'0 0.2
2018-May-28 11:57N 14°36' W 061°04'0 0.0
2018-May-28 11:28N 14°36' W 061°04'0 0.0
2018-May-28 02:01N 14°36' W 061°04'0 0.0
2018-May-27 09:01N 14°36' W 061°04'0 0.0
2018-May-27 08:58N 14°36' W 061°04'0 0.0
2018-May-27 08:28N 14°36' W 061°04'0 0.0
2018-May-27 07:04N 14°36' W 061°04'0 0.0
2018-May-27 06:49N 14°36' W 061°04'0 0.0
2018-May-27 06:22N 14°36' W 061°04'0 0.0
2018-May-27 05:34N 14°36' W 061°04'0 0.0
2018-May-27 04:40N 14°36' W 061°04'0 0.0
2018-May-27 04:25N 14°36' W 061°04'0 0.0
2018-May-27 03:49N 14°36' W 061°04'0 0.0
2018-May-27 03:28N 14°36' W 061°04'0 0.0
2018-May-27 01:07N 14°36' W 061°04'0 0.0
2018-May-27 00:58N 14°36' W 061°04'0 0.0
2018-May-26 22:28N 14°36' W 061°04'0 0.0
2018-May-26 20:58N 14°36' W 061°04'0 0.0
2018-May-26 20:28N 14°36' W 061°04'0 0.0
2018-May-26 19:58N 14°36' W 061°04'0 0.0
2018-May-26 19:28N 14°36' W 061°04'0 0.0
2018-May-26 18:52N 14°36' W 061°04'0 0.0
2018-May-26 18:25N 14°36' W 061°04'0 0.0
2018-May-26 17:55N 14°36' W 061°04'0 0.0
2018-May-26 17:28N 14°36' W 061°04'0 0.0
2018-May-26 16:58N 14°36' W 061°04'0 0.0
2018-May-26 16:28N 14°36' W 061°04'0 0.0
2018-May-26 15:58N 14°36' W 061°04'0 0.0
2018-May-26 15:25N 14°36' W 061°04'0 0.0
2018-May-26 14:58N 14°36' W 061°04'0 0.0
2018-May-26 14:28N 14°36' W 061°04'0 0.0
2018-May-26 13:55N 14°36' W 061°04'0 0.0
2018-May-26 13:28N 14°36' W 061°04'0 0.0
2018-May-26 11:25N 14°36' W 061°04'0 0.0
2018-May-26 10:58N 14°36' W 061°04'0 0.0
2018-May-26 10:28N 14°36' W 061°04'0 0.0
2018-May-26 09:58N 14°36' W 061°04'0 0.0
2018-May-26 08:10N 14°36' W 061°04'0 0.0
2018-May-26 07:40N 14°36' W 061°04'0 0.0
2018-May-26 07:28N 14°36' W 061°04'0 0.0
2018-May-26 06:55N 14°36' W 061°04'0 0.0
2018-May-26 06:25N 14°36' W 061°04'0 0.0
2018-May-26 05:28N 14°36' W 061°04'0 0.0
2018-May-26 04:49N 14°36' W 061°04'0 0.0
2018-May-26 04:13N 14°36' W 061°04'  
Track history (hours):
 
Tides and Currents Weather Stations Pressure Air Temp Water Temp Dewpoint Dewpoint Depression Visibility Wind Speed Wind Dir Waves Ship Positions

Touareg

Last reported at 2018-Jun-05 03:54 UTC. Time now 2018-Jun-19 12:42 UTC.
Position N 14°27' W 061°09'.
Warning: this ship's position is 14 days out of date.

; draft 4.7 m.

Type: Other ship. MMSI: 377907128.

Date/timePositionNaut miles runAvg speedWind from/ knotsBaromVisibWave heightAir tempDewpointWater temp
2018-Jun-05 03:54N 14°27' W 061°09'2 4.2
2018-Jun-05 03:30N 14°28' W 061°09'3 4.6
2018-Jun-05 02:44N 14°32' W 061°09'1 4.8
2018-Jun-05 02:30N 14°33' W 061°09'5 3.7
2018-Jun-05 01:04N 14°38' W 061°10'2 5.7
2018-Jun-05 00:45N 14°37' W 061°08'310.2
2018-Jun-05 00:29N 14°36' W 061°06'2 0.3
2018-Jun-04 16:14N 14°36' W 061°04'2 8.1
2018-Jun-04 15:56N 14°36' W 061°06'  
2018-May-28 14:14N 14°38' W 061°09'2 6.1
2018-May-28 13:58N 14°36' W 061°08'2 4.3
2018-May-28 13:24N 14°35' W 061°06'1 3.6
2018-May-28 13:00N 14°35' W 061°05'1 2.1
2018-May-28 12:27N 14°36' W 061°04'0 0.2
2018-May-28 11:57N 14°36' W 061°04'0 0.0
2018-May-28 11:28N 14°36' W 061°04'0 0.0
2018-May-28 02:01N 14°36' W 061°04'0 0.0
2018-May-27 09:01N 14°36' W 061°04'0 0.0
2018-May-27 08:58N 14°36' W 061°04'0 0.0
2018-May-27 08:28N 14°36' W 061°04'0 0.0
2018-May-27 07:04N 14°36' W 061°04'0 0.0
2018-May-27 06:49N 14°36' W 061°04'0 0.0
2018-May-27 06:22N 14°36' W 061°04'0 0.0
2018-May-27 05:34N 14°36' W 061°04'0 0.0
2018-May-27 04:40N 14°36' W 061°04'0 0.0
2018-May-27 04:25N 14°36' W 061°04'0 0.0
2018-May-27 03:49N 14°36' W 061°04'0 0.0
2018-May-27 03:28N 14°36' W 061°04'0 0.0
2018-May-27 01:07N 14°36' W 061°04'0 0.0
2018-May-27 00:58N 14°36' W 061°04'0 0.0
2018-May-26 22:28N 14°36' W 061°04'0 0.0
2018-May-26 20:58N 14°36' W 061°04'0 0.0
2018-May-26 20:28N 14°36' W 061°04'0 0.0
2018-May-26 19:58N 14°36' W 061°04'0 0.0
2018-May-26 19:28N 14°36' W 061°04'0 0.0
2018-May-26 18:52N 14°36' W 061°04'0 0.0
2018-May-26 18:25N 14°36' W 061°04'0 0.0
2018-May-26 17:55N 14°36' W 061°04'0 0.0
2018-May-26 17:28N 14°36' W 061°04'0 0.0
2018-May-26 16:58N 14°36' W 061°04'0 0.0
2018-May-26 16:28N 14°36' W 061°04'0 0.0
2018-May-26 15:58N 14°36' W 061°04'0 0.0
2018-May-26 15:25N 14°36' W 061°04'0 0.0
2018-May-26 14:58N 14°36' W 061°04'0 0.0
2018-May-26 14:28N 14°36' W 061°04'0 0.0
2018-May-26 13:55N 14°36' W 061°04'0 0.0
2018-May-26 13:28N 14°36' W 061°04'0 0.0
2018-May-26 11:25N 14°36' W 061°04'0 0.0
2018-May-26 10:58N 14°36' W 061°04'0 0.0
2018-May-26 10:28N 14°36' W 061°04'0 0.0
2018-May-26 09:58N 14°36' W 061°04'0 0.0
2018-May-26 08:10N 14°36' W 061°04'0 0.0
2018-May-26 07:40N 14°36' W 061°04'0 0.0
2018-May-26 07:28N 14°36' W 061°04'0 0.0
2018-May-26 06:55N 14°36' W 061°04'0 0.0
2018-May-26 06:25N 14°36' W 061°04'0 0.0
2018-May-26 05:28N 14°36' W 061°04'0 0.0
2018-May-26 04:49N 14°36' W 061°04'0 0.0
2018-May-26 04:13N 14°36' W 061°04'  

Dump ship's entire track history